sensor_id;sensor_type;location;lat;lon;timestamp;P1;durP1;ratioP1;P2;durP2;ratioP2
48935;SDS011;34745;52.276;10.528;2023-02-26T00:00:29;3.97;;;1.83;;
48935;SDS011;34745;52.276;10.528;2023-02-26T00:02:56;8.47;;;2.17;;
48935;SDS011;34745;52.276;10.528;2023-02-26T00:05:23;9.07;;;2.00;;
48935;SDS011;34745;52.276;10.528;2023-02-26T00:07:50;6.33;;;2.53;;
48935;SDS011;34745;52.276;10.528;2023-02-26T00:10:17;6.77;;;2.87;;
48935;SDS011;34745;52.276;10.528;2023-02-26T00:12:45;10.33;;;2.13;;
48935;SDS011;34745;52.276;10.528;2023-02-26T00:15:13;4.13;;;2.20;;
48935;SDS011;34745;52.276;10.528;2023-02-26T00:17:46;5.40;;;2.63;;
48935;SDS011;34745;52.276;10.528;2023-02-26T00:20:19;5.80;;;1.90;;
48935;SDS011;34745;52.276;10.528;2023-02-26T00:22:46;4.57;;;1.53;;
48935;SDS011;34745;52.276;10.528;2023-02-26T00:25:13;3.40;;;2.07;;
48935;SDS011;34745;52.276;10.528;2023-02-26T00:27:40;7.70;;;2.17;;
48935;SDS011;34745;52.276;10.528;2023-02-26T00:30:09;6.43;;;2.23;;
48935;SDS011;34745;52.276;10.528;2023-02-26T00:32:37;6.10;;;2.33;;
48935;SDS011;34745;52.276;10.528;2023-02-26T00:35:08;4.77;;;2.07;;
48935;SDS011;34745;52.276;10.528;2023-02-26T00:37:57;5.80;;;2.17;;
48935;SDS011;34745;52.276;10.528;2023-02-26T00:40:40;3.97;;;1.90;;
48935;SDS011;34745;52.276;10.528;2023-02-26T00:43:12;4.77;;;2.00;;
48935;SDS011;34745;52.276;10.528;2023-02-26T00:45:41;5.80;;;2.00;;
48935;SDS011;34745;52.276;10.528;2023-02-26T00:48:19;5.47;;;2.07;;
48935;SDS011;34745;52.276;10.528;2023-02-26T00:50:58;3.93;;;2.10;;
48935;SDS011;34745;52.276;10.528;2023-02-26T00:53:28;4.63;;;2.13;;
48935;SDS011;34745;52.276;10.528;2023-02-26T00:55:59;3.77;;;1.93;;
48935;SDS011;34745;52.276;10.528;2023-02-26T00:58:26;2.80;;;1.97;;
48935;SDS011;34745;52.276;10.528;2023-02-26T01:00:53;7.93;;;2.70;;
48935;SDS011;34745;52.276;10.528;2023-02-26T01:03:20;6.83;;;2.13;;
48935;SDS011;34745;52.276;10.528;2023-02-26T01:05:48;5.83;;;2.03;;
48935;SDS011;34745;52.276;10.528;2023-02-26T01:08:17;5.77;;;2.30;;
48935;SDS011;34745;52.276;10.528;2023-02-26T01:10:49;10.57;;;2.50;;
48935;SDS011;34745;52.276;10.528;2023-02-26T01:13:16;6.17;;;2.10;;
48935;SDS011;34745;52.276;10.528;2023-02-26T01:15:46;6.53;;;2.03;;
48935;SDS011;34745;52.276;10.528;2023-02-26T01:18:18;5.70;;;2.20;;
48935;SDS011;34745;52.276;10.528;2023-02-26T01:20:50;6.27;;;1.80;;
48935;SDS011;34745;52.276;10.528;2023-02-26T01:23:23;7.27;;;2.03;;
48935;SDS011;34745;52.276;10.528;2023-02-26T01:25:52;3.37;;;1.87;;
48935;SDS011;34745;52.276;10.528;2023-02-26T01:28:23;6.57;;;2.10;;
48935;SDS011;34745;52.276;10.528;2023-02-26T01:30:52;4.63;;;2.23;;
48935;SDS011;34745;52.276;10.528;2023-02-26T01:33:24;7.30;;;1.87;;
48935;SDS011;34745;52.276;10.528;2023-02-26T01:35:56;11.03;;;2.50;;
48935;SDS011;34745;52.276;10.528;2023-02-26T01:38:31;10.93;;;2.17;;
48935;SDS011;34745;52.276;10.528;2023-02-26T01:41:12;8.50;;;2.10;;
48935;SDS011;34745;52.276;10.528;2023-02-26T01:43:49;4.10;;;1.77;;
48935;SDS011;34745;52.276;10.528;2023-02-26T01:46:25;6.73;;;2.20;;
48935;SDS011;34745;52.276;10.528;2023-02-26T01:48:59;5.73;;;2.33;;
48935;SDS011;34745;52.276;10.528;2023-02-26T01:51:40;6.70;;;2.60;;
48935;SDS011;34745;52.276;10.528;2023-02-26T01:54:13;5.13;;;2.10;;
48935;SDS011;34745;52.276;10.528;2023-02-26T01:56:42;4.57;;;1.83;;
48935;SDS011;34745;52.276;10.528;2023-02-26T01:59:13;3.83;;;1.73;;
48935;SDS011;34745;52.276;10.528;2023-02-26T02:01:42;7.27;;;1.80;;
48935;SDS011;34745;52.276;10.528;2023-02-26T02:04:10;4.20;;;2.03;;
48935;SDS011;34745;52.276;10.528;2023-02-26T02:06:40;7.93;;;2.17;;
48935;SDS011;34745;52.276;10.528;2023-02-26T02:09:08;6.80;;;2.10;;
48935;SDS011;34745;52.276;10.528;2023-02-26T02:11:38;5.73;;;1.97;;
48935;SDS011;34745;52.276;10.528;2023-02-26T02:14:26;6.37;;;1.90;;
48935;SDS011;34745;52.276;10.528;2023-02-26T02:17:02;7.97;;;2.00;;
48935;SDS011;34745;52.276;10.528;2023-02-26T02:19:42;7.60;;;2.00;;
48935;SDS011;34745;52.276;10.528;2023-02-26T02:22:39;5.93;;;1.80;;
48935;SDS011;34745;52.276;10.528;2023-02-26T02:25:32;5.07;;;1.80;;
48935;SDS011;34745;52.276;10.528;2023-02-26T02:28:25;4.20;;;1.63;;
48935;SDS011;34745;52.276;10.528;2023-02-26T02:31:05;4.70;;;1.93;;
48935;SDS011;34745;52.276;10.528;2023-02-26T02:33:35;5.30;;;2.10;;
48935;SDS011;34745;52.276;10.528;2023-02-26T02:36:08;6.87;;;2.00;;
48935;SDS011;34745;52.276;10.528;2023-02-26T02:38:41;3.13;;;1.90;;
48935;SDS011;34745;52.276;10.528;2023-02-26T02:41:14;3.80;;;1.80;;
48935;SDS011;34745;52.276;10.528;2023-02-26T02:43:45;4.57;;;1.50;;
48935;SDS011;34745;52.276;10.528;2023-02-26T02:46:17;1.77;;;1.47;;
48935;SDS011;34745;52.276;10.528;2023-02-26T02:48:48;4.67;;;1.80;;
48935;SDS011;34745;52.276;10.528;2023-02-26T02:51:22;6.70;;;2.10;;
48935;SDS011;34745;52.276;10.528;2023-02-26T02:53:52;4.93;;;1.70;;
48935;SDS011;34745;52.276;10.528;2023-02-26T02:56:24;4.53;;;2.00;;
48935;SDS011;34745;52.276;10.528;2023-02-26T02:58:56;2.57;;;1.67;;
48935;SDS011;34745;52.276;10.528;2023-02-26T03:01:29;5.37;;;1.93;;
48935;SDS011;34745;52.276;10.528;2023-02-26T03:04:01;6.73;;;1.97;;
48935;SDS011;34745;52.276;10.528;2023-02-26T03:06:31;6.90;;;2.10;;
48935;SDS011;34745;52.276;10.528;2023-02-26T03:08:59;9.43;;;2.33;;
48935;SDS011;34745;52.276;10.528;2023-02-26T03:11:29;4.63;;;2.03;;
48935;SDS011;34745;52.276;10.528;2023-02-26T03:13:56;4.83;;;1.67;;
48935;SDS011;34745;52.276;10.528;2023-02-26T03:16:36;4.57;;;2.20;;
48935;SDS011;34745;52.276;10.528;2023-02-26T03:19:17;3.87;;;1.97;;
48935;SDS011;34745;52.276;10.528;2023-02-26T03:21:52;6.93;;;1.90;;
48935;SDS011;34745;52.276;10.528;2023-02-26T03:24:28;3.53;;;1.57;;
48935;SDS011;34745;52.276;10.528;2023-02-26T03:27:02;7.40;;;2.10;;
48935;SDS011;34745;52.276;10.528;2023-02-26T03:29:36;3.70;;;1.80;;
48935;SDS011;34745;52.276;10.528;2023-02-26T03:32:07;3.90;;;2.10;;
48935;SDS011;34745;52.276;10.528;2023-02-26T03:34:38;13.77;;;2.40;;
48935;SDS011;34745;52.276;10.528;2023-02-26T03:37:07;5.90;;;2.13;;
48935;SDS011;34745;52.276;10.528;2023-02-26T03:39:43;6.67;;;1.80;;
48935;SDS011;34745;52.276;10.528;2023-02-26T03:42:14;7.73;;;2.30;;
48935;SDS011;34745;52.276;10.528;2023-02-26T03:44:49;5.00;;;1.53;;
48935;SDS011;34745;52.276;10.528;2023-02-26T03:47:20;5.23;;;1.90;;
48935;SDS011;34745;52.276;10.528;2023-02-26T03:49:49;6.73;;;2.43;;
48935;SDS011;34745;52.276;10.528;2023-02-26T03:52:20;6.13;;;1.90;;
48935;SDS011;34745;52.276;10.528;2023-02-26T03:54:52;4.73;;;2.20;;
48935;SDS011;34745;52.276;10.528;2023-02-26T03:57:23;3.90;;;1.90;;
48935;SDS011;34745;52.276;10.528;2023-02-26T03:59:50;6.87;;;2.30;;
48935;SDS011;34745;52.276;10.528;2023-02-26T04:02:18;4.57;;;1.97;;
48935;SDS011;34745;52.276;10.528;2023-02-26T04:04:50;9.43;;;2.33;;
48935;SDS011;34745;52.276;10.528;2023-02-26T04:07:20;2.37;;;2.13;;
48935;SDS011;34745;52.276;10.528;2023-02-26T04:09:49;5.27;;;1.70;;
48935;SDS011;34745;52.276;10.528;2023-02-26T04:12:19;3.87;;;1.80;;
48935;SDS011;34745;52.276;10.528;2023-02-26T04:14:48;3.00;;;1.73;;
48935;SDS011;34745;52.276;10.528;2023-02-26T04:17:16;15.73;;;1.70;;
48935;SDS011;34745;52.276;10.528;2023-02-26T04:19:45;3.23;;;1.83;;
48935;SDS011;34745;52.276;10.528;2023-02-26T04:22:12;3.67;;;1.67;;
48935;SDS011;34745;52.276;10.528;2023-02-26T04:24:39;7.47;;;1.80;;
48935;SDS011;34745;52.276;10.528;2023-02-26T04:27:06;3.70;;;1.60;;
48935;SDS011;34745;52.276;10.528;2023-02-26T04:29:33;5.57;;;1.50;;
48935;SDS011;34745;52.276;10.528;2023-02-26T04:32:00;5.80;;;1.80;;
48935;SDS011;34745;52.276;10.528;2023-02-26T04:34:28;4.47;;;1.70;;
48935;SDS011;34745;52.276;10.528;2023-02-26T04:36:56;4.60;;;1.47;;
48935;SDS011;34745;52.276;10.528;2023-02-26T04:39:23;5.57;;;2.07;;
48935;SDS011;34745;52.276;10.528;2023-02-26T04:41:50;1.83;;;1.60;;
48935;SDS011;34745;52.276;10.528;2023-02-26T04:44:17;4.37;;;1.50;;
48935;SDS011;34745;52.276;10.528;2023-02-26T04:46:44;2.23;;;1.63;;
48935;SDS011;34745;52.276;10.528;2023-02-26T04:49:11;6.13;;;1.60;;
48935;SDS011;34745;52.276;10.528;2023-02-26T04:51:38;2.07;;;1.53;;
48935;SDS011;34745;52.276;10.528;2023-02-26T04:54:06;2.57;;;1.53;;
48935;SDS011;34745;52.276;10.528;2023-02-26T04:56:33;5.60;;;1.70;;
48935;SDS011;34745;52.276;10.528;2023-02-26T04:59:01;2.20;;;1.50;;
48935;SDS011;34745;52.276;10.528;2023-02-26T05:01:27;4.30;;;1.67;;
48935;SDS011;34745;52.276;10.528;2023-02-26T05:03:55;2.63;;;1.60;;
48935;SDS011;34745;52.276;10.528;2023-02-26T05:06:22;5.53;;;1.87;;
48935;SDS011;34745;52.276;10.528;2023-02-26T05:08:49;2.40;;;1.70;;
48935;SDS011;34745;52.276;10.528;2023-02-26T05:11:17;6.10;;;1.47;;
48935;SDS011;34745;52.276;10.528;2023-02-26T05:13:44;5.00;;;2.07;;
48935;SDS011;34745;52.276;10.528;2023-02-26T05:16:11;6.43;;;1.70;;
48935;SDS011;34745;52.276;10.528;2023-02-26T05:18:38;7.80;;;2.20;;
48935;SDS011;34745;52.276;10.528;2023-02-26T05:21:05;3.03;;;1.60;;
48935;SDS011;34745;52.276;10.528;2023-02-26T05:23:32;2.53;;;1.37;;
48935;SDS011;34745;52.276;10.528;2023-02-26T05:25:59;5.90;;;1.67;;
48935;SDS011;34745;52.276;10.528;2023-02-26T05:28:28;4.77;;;1.80;;
48935;SDS011;34745;52.276;10.528;2023-02-26T05:30:55;4.87;;;1.70;;
48935;SDS011;34745;52.276;10.528;2023-02-26T05:33:24;3.33;;;1.77;;
48935;SDS011;34745;52.276;10.528;2023-02-26T05:35:51;5.27;;;1.80;;
48935;SDS011;34745;52.276;10.528;2023-02-26T05:38:18;3.33;;;1.77;;
48935;SDS011;34745;52.276;10.528;2023-02-26T05:40:45;5.50;;;2.13;;
48935;SDS011;34745;52.276;10.528;2023-02-26T05:43:12;5.20;;;1.73;;
48935;SDS011;34745;52.276;10.528;2023-02-26T05:45:41;4.03;;;2.00;;
48935;SDS011;34745;52.276;10.528;2023-02-26T05:48:08;7.70;;;1.97;;
48935;SDS011;34745;52.276;10.528;2023-02-26T05:50:36;2.27;;;1.40;;
48935;SDS011;34745;52.276;10.528;2023-02-26T05:53:03;5.97;;;1.93;;
48935;SDS011;34745;52.276;10.528;2023-02-26T05:55:30;7.57;;;1.60;;
48935;SDS011;34745;52.276;10.528;2023-02-26T05:57:57;5.50;;;1.80;;
48935;SDS011;34745;52.276;10.528;2023-02-26T06:00:24;4.87;;;1.60;;
48935;SDS011;34745;52.276;10.528;2023-02-26T06:02:53;5.43;;;1.80;;
48935;SDS011;34745;52.276;10.528;2023-02-26T06:05:20;5.03;;;1.60;;
48935;SDS011;34745;52.276;10.528;2023-02-26T06:07:47;5.47;;;1.80;;
48935;SDS011;34745;52.276;10.528;2023-02-26T06:10:14;3.70;;;1.47;;
48935;SDS011;34745;52.276;10.528;2023-02-26T06:12:42;9.67;;;2.30;;
48935;SDS011;34745;52.276;10.528;2023-02-26T06:15:09;6.13;;;2.00;;
48935;SDS011;34745;52.276;10.528;2023-02-26T06:17:38;4.60;;;2.00;;
48935;SDS011;34745;52.276;10.528;2023-02-26T06:20:08;6.13;;;2.03;;
48935;SDS011;34745;52.276;10.528;2023-02-26T06:22:36;3.87;;;1.83;;
48935;SDS011;34745;52.276;10.528;2023-02-26T06:25:03;5.73;;;1.83;;
48935;SDS011;34745;52.276;10.528;2023-02-26T06:27:31;3.67;;;1.90;;
48935;SDS011;34745;52.276;10.528;2023-02-26T06:29:57;7.23;;;2.20;;
48935;SDS011;34745;52.276;10.528;2023-02-26T06:32:24;3.27;;;1.67;;
48935;SDS011;34745;52.276;10.528;2023-02-26T06:34:54;4.60;;;1.73;;
48935;SDS011;34745;52.276;10.528;2023-02-26T06:37:23;5.53;;;1.67;;
48935;SDS011;34745;52.276;10.528;2023-02-26T06:39:50;5.93;;;1.47;;
48935;SDS011;34745;52.276;10.528;2023-02-26T06:42:17;3.30;;;1.60;;
48935;SDS011;34745;52.276;10.528;2023-02-26T06:44:45;6.80;;;2.13;;
48935;SDS011;34745;52.276;10.528;2023-02-26T06:47:13;4.17;;;2.13;;
48935;SDS011;34745;52.276;10.528;2023-02-26T06:49:39;6.03;;;1.57;;
48935;SDS011;34745;52.276;10.528;2023-02-26T06:52:07;4.50;;;1.87;;
48935;SDS011;34745;52.276;10.528;2023-02-26T06:54:35;4.40;;;1.70;;
48935;SDS011;34745;52.276;10.528;2023-02-26T06:57:02;3.53;;;1.60;;
48935;SDS011;34745;52.276;10.528;2023-02-26T06:59:29;4.43;;;1.70;;
48935;SDS011;34745;52.276;10.528;2023-02-26T07:01:56;4.57;;;2.07;;
48935;SDS011;34745;52.276;10.528;2023-02-26T07:04:23;5.53;;;2.03;;
48935;SDS011;34745;52.276;10.528;2023-02-26T07:06:50;4.33;;;1.83;;
48935;SDS011;34745;52.276;10.528;2023-02-26T07:09:17;5.83;;;2.10;;
48935;SDS011;34745;52.276;10.528;2023-02-26T07:11:47;5.63;;;1.50;;
48935;SDS011;34745;52.276;10.528;2023-02-26T07:14:13;2.43;;;1.30;;
48935;SDS011;34745;52.276;10.528;2023-02-26T07:16:41;4.57;;;1.90;;
48935;SDS011;34745;52.276;10.528;2023-02-26T07:19:08;1.87;;;1.33;;
48935;SDS011;34745;52.276;10.528;2023-02-26T07:21:34;2.43;;;1.47;;
48935;SDS011;34745;52.276;10.528;2023-02-26T07:24:02;5.27;;;2.00;;
48935;SDS011;34745;52.276;10.528;2023-02-26T07:26:29;3.43;;;1.63;;
48935;SDS011;34745;52.276;10.528;2023-02-26T07:28:57;7.70;;;1.60;;
48935;SDS011;34745;52.276;10.528;2023-02-26T07:31:24;4.87;;;1.60;;
48935;SDS011;34745;52.276;10.528;2023-02-26T07:33:51;1.77;;;1.37;;
48935;SDS011;34745;52.276;10.528;2023-02-26T07:36:19;5.57;;;1.57;;
48935;SDS011;34745;52.276;10.528;2023-02-26T07:38:45;3.43;;;1.50;;
48935;SDS011;34745;52.276;10.528;2023-02-26T07:41:12;4.60;;;1.40;;
48935;SDS011;34745;52.276;10.528;2023-02-26T07:43:39;2.33;;;1.50;;
48935;SDS011;34745;52.276;10.528;2023-02-26T07:46:09;6.23;;;1.63;;
48935;SDS011;34745;52.276;10.528;2023-02-26T07:48:36;2.20;;;1.47;;
48935;SDS011;34745;52.276;10.528;2023-02-26T07:51:03;4.63;;;1.40;;
48935;SDS011;34745;52.276;10.528;2023-02-26T07:53:32;3.50;;;1.30;;
48935;SDS011;34745;52.276;10.528;2023-02-26T07:56:00;4.67;;;1.40;;
48935;SDS011;34745;52.276;10.528;2023-02-26T07:58:27;4.20;;;1.40;;
48935;SDS011;34745;52.276;10.528;2023-02-26T08:00:54;4.27;;;1.30;;
48935;SDS011;34745;52.276;10.528;2023-02-26T08:03:22;4.53;;;1.50;;
48935;SDS011;34745;52.276;10.528;2023-02-26T08:05:49;4.17;;;1.30;;
48935;SDS011;34745;52.276;10.528;2023-02-26T08:08:16;4.37;;;1.40;;
48935;SDS011;34745;52.276;10.528;2023-02-26T08:10:43;6.77;;;1.30;;
48935;SDS011;34745;52.276;10.528;2023-02-26T08:13:10;8.33;;;1.73;;
48935;SDS011;34745;52.276;10.528;2023-02-26T08:15:37;8.03;;;2.93;;
48935;SDS011;34745;52.276;10.528;2023-02-26T08:18:04;7.20;;;3.40;;
48935;SDS011;34745;52.276;10.528;2023-02-26T08:20:32;5.90;;;1.93;;
48935;SDS011;34745;52.276;10.528;2023-02-26T08:22:59;11.40;;;5.00;;
48935;SDS011;34745;52.276;10.528;2023-02-26T08:25:26;17.40;;;6.70;;
48935;SDS011;34745;52.276;10.528;2023-02-26T08:27:53;6.30;;;3.07;;
48935;SDS011;34745;52.276;10.528;2023-02-26T08:30:23;6.87;;;3.10;;
48935;SDS011;34745;52.276;10.528;2023-02-26T08:32:50;4.47;;;2.17;;
48935;SDS011;34745;52.276;10.528;2023-02-26T08:35:17;5.87;;;2.90;;
48935;SDS011;34745;52.276;10.528;2023-02-26T08:37:45;6.17;;;3.80;;
48935;SDS011;34745;52.276;10.528;2023-02-26T08:40:12;5.33;;;1.67;;
48935;SDS011;34745;52.276;10.528;2023-02-26T08:42:40;6.20;;;1.60;;
48935;SDS011;34745;52.276;10.528;2023-02-26T08:45:08;2.50;;;1.27;;
48935;SDS011;34745;52.276;10.528;2023-02-26T08:47:35;4.67;;;1.67;;
48935;SDS011;34745;52.276;10.528;2023-02-26T08:50:14;4.30;;;1.40;;
48935;SDS011;34745;52.276;10.528;2023-02-26T08:52:40;3.03;;;1.50;;
48935;SDS011;34745;52.276;10.528;2023-02-26T08:55:09;4.53;;;1.60;;
48935;SDS011;34745;52.276;10.528;2023-02-26T08:57:36;2.40;;;1.30;;
48935;SDS011;34745;52.276;10.528;2023-02-26T09:00:04;4.40;;;1.37;;
48935;SDS011;34745;52.276;10.528;2023-02-26T09:02:35;1.60;;;1.30;;
48935;SDS011;34745;52.276;10.528;2023-02-26T09:05:03;4.00;;;1.53;;
48935;SDS011;34745;52.276;10.528;2023-02-26T09:07:30;21.07;;;1.83;;
48935;SDS011;34745;52.276;10.528;2023-02-26T09:09:57;3.20;;;1.57;;
48935;SDS011;34745;52.276;10.528;2023-02-26T09:12:26;3.57;;;1.27;;
48935;SDS011;34745;52.276;10.528;2023-02-26T09:14:53;7.10;;;1.47;;
48935;SDS011;34745;52.276;10.528;2023-02-26T09:17:20;4.87;;;1.60;;
48935;SDS011;34745;52.276;10.528;2023-02-26T09:19:47;3.50;;;1.40;;
48935;SDS011;34745;52.276;10.528;2023-02-26T09:22:14;3.33;;;1.50;;
48935;SDS011;34745;52.276;10.528;2023-02-26T09:24:41;2.20;;;1.43;;
48935;SDS011;34745;52.276;10.528;2023-02-26T09:27:08;2.87;;;1.30;;
48935;SDS011;34745;52.276;10.528;2023-02-26T09:29:37;4.73;;;1.60;;
48935;SDS011;34745;52.276;10.528;2023-02-26T09:32:04;1.53;;;1.07;;
48935;SDS011;34745;52.276;10.528;2023-02-26T09:34:33;12.60;;;4.40;;
48935;SDS011;34745;52.276;10.528;2023-02-26T09:37:01;2.23;;;1.30;;
48935;SDS011;34745;52.276;10.528;2023-02-26T09:39:29;3.83;;;1.43;;
48935;SDS011;34745;52.276;10.528;2023-02-26T09:41:57;3.47;;;1.50;;
48935;SDS011;34745;52.276;10.528;2023-02-26T09:44:29;2.97;;;1.50;;
48935;SDS011;34745;52.276;10.528;2023-02-26T09:47:02;6.03;;;1.77;;
48935;SDS011;34745;52.276;10.528;2023-02-26T09:49:39;4.70;;;1.17;;
48935;SDS011;34745;52.276;10.528;2023-02-26T09:52:18;4.67;;;1.40;;
48935;SDS011;34745;52.276;10.528;2023-02-26T09:54:53;4.40;;;1.30;;
48935;SDS011;34745;52.276;10.528;2023-02-26T09:57:25;5.33;;;1.50;;
48935;SDS011;34745;52.276;10.528;2023-02-26T09:59:56;1.27;;;1.10;;
48935;SDS011;34745;52.276;10.528;2023-02-26T10:02:35;7.03;;;1.20;;
48935;SDS011;34745;52.276;10.528;2023-02-26T10:05:13;4.20;;;1.40;;
48935;SDS011;34745;52.276;10.528;2023-02-26T10:07:46;2.60;;;1.50;;
48935;SDS011;34745;52.276;10.528;2023-02-26T10:10:21;4.57;;;1.37;;
48935;SDS011;34745;52.276;10.528;2023-02-26T10:12:58;1.57;;;1.30;;
48935;SDS011;34745;52.276;10.528;2023-02-26T10:15:27;7.20;;;1.40;;
48935;SDS011;34745;52.276;10.528;2023-02-26T10:18:02;2.07;;;1.27;;
48935;SDS011;34745;52.276;10.528;2023-02-26T10:20:36;1.10;;;1.10;;
48935;SDS011;34745;52.276;10.528;2023-02-26T10:23:11;4.13;;;1.60;;
48935;SDS011;34745;52.276;10.528;2023-02-26T10:25:46;1.90;;;1.07;;
48935;SDS011;34745;52.276;10.528;2023-02-26T10:28:21;3.47;;;1.20;;
48935;SDS011;34745;52.276;10.528;2023-02-26T10:31:01;5.23;;;1.40;;
48935;SDS011;34745;52.276;10.528;2023-02-26T10:33:35;1.50;;;1.30;;
48935;SDS011;34745;52.276;10.528;2023-02-26T10:36:08;1.83;;;1.20;;
48935;SDS011;34745;52.276;10.528;2023-02-26T10:38:42;2.10;;;1.37;;
48935;SDS011;34745;52.276;10.528;2023-02-26T10:41:14;6.17;;;1.30;;
48935;SDS011;34745;52.276;10.528;2023-02-26T10:43:46;6.43;;;1.40;;
48935;SDS011;34745;52.276;10.528;2023-02-26T10:46:18;3.17;;;1.50;;
48935;SDS011;34745;52.276;10.528;2023-02-26T10:48:54;2.70;;;1.30;;
48935;SDS011;34745;52.276;10.528;2023-02-26T10:51:33;3.40;;;1.00;;
48935;SDS011;34745;52.276;10.528;2023-02-26T10:54:03;3.03;;;1.33;;
48935;SDS011;34745;52.276;10.528;2023-02-26T10:56:46;6.67;;;1.40;;
48935;SDS011;34745;52.276;10.528;2023-02-26T10:59:14;3.63;;;1.10;;
48935;SDS011;34745;52.276;10.528;2023-02-26T11:01:42;2.20;;;1.20;;
48935;SDS011;34745;52.276;10.528;2023-02-26T11:04:12;5.37;;;1.40;;
48935;SDS011;34745;52.276;10.528;2023-02-26T11:06:44;2.33;;;1.20;;
48935;SDS011;34745;52.276;10.528;2023-02-26T11:09:17;3.27;;;1.10;;
48935;SDS011;34745;52.276;10.528;2023-02-26T11:11:47;2.03;;;1.20;;
48935;SDS011;34745;52.276;10.528;2023-02-26T11:14:17;5.53;;;1.30;;
48935;SDS011;34745;52.276;10.528;2023-02-26T11:16:48;2.30;;;1.13;;
48935;SDS011;34745;52.276;10.528;2023-02-26T11:19:22;2.83;;;1.50;;
48935;SDS011;34745;52.276;10.528;2023-02-26T11:21:52;2.87;;;1.13;;
48935;SDS011;34745;52.276;10.528;2023-02-26T11:24:28;1.30;;;1.20;;
48935;SDS011;34745;52.276;10.528;2023-02-26T11:26:57;1.73;;;1.10;;
48935;SDS011;34745;52.276;10.528;2023-02-26T11:29:32;0.83;;;0.83;;
48935;SDS011;34745;52.276;10.528;2023-02-26T11:32:04;2.47;;;1.10;;
48935;SDS011;34745;52.276;10.528;2023-02-26T11:34:33;3.27;;;1.33;;
48935;SDS011;34745;52.276;10.528;2023-02-26T11:37:01;2.27;;;1.27;;
48935;SDS011;34745;52.276;10.528;2023-02-26T11:39:32;2.30;;;1.00;;
48935;SDS011;34745;52.276;10.528;2023-02-26T11:42:02;2.27;;;1.10;;
48935;SDS011;34745;52.276;10.528;2023-02-26T11:44:32;1.17;;;0.87;;
48935;SDS011;34745;52.276;10.528;2023-02-26T11:47:03;5.63;;;1.20;;
48935;SDS011;34745;52.276;10.528;2023-02-26T11:49:34;1.00;;;1.00;;
48935;SDS011;34745;52.276;10.528;2023-02-26T11:52:15;0.97;;;0.90;;
48935;SDS011;34745;52.276;10.528;2023-02-26T11:54:48;2.60;;;1.10;;
48935;SDS011;34745;52.276;10.528;2023-02-26T11:57:17;6.50;;;1.17;;
48935;SDS011;34745;52.276;10.528;2023-02-26T11:59:50;1.07;;;0.93;;
48935;SDS011;34745;52.276;10.528;2023-02-26T12:02:20;1.00;;;1.00;;
48935;SDS011;34745;52.276;10.528;2023-02-26T12:04:50;4.27;;;1.17;;
48935;SDS011;34745;52.276;10.528;2023-02-26T12:07:19;1.57;;;1.33;;
48935;SDS011;34745;52.276;10.528;2023-02-26T12:09:47;2.47;;;1.10;;
48935;SDS011;34745;52.276;10.528;2023-02-26T12:12:20;1.80;;;1.40;;
48935;SDS011;34745;52.276;10.528;2023-02-26T12:15:10;2.73;;;1.47;;
48935;SDS011;34745;52.276;10.528;2023-02-26T12:17:50;1.53;;;1.10;;
48935;SDS011;34745;52.276;10.528;2023-02-26T12:20:30;2.30;;;1.47;;
48935;SDS011;34745;52.276;10.528;2023-02-26T12:23:09;1.90;;;1.07;;
48935;SDS011;34745;52.276;10.528;2023-02-26T12:25:51;1.40;;;1.30;;
48935;SDS011;34745;52.276;10.528;2023-02-26T12:31:30;2.67;;;1.50;;
48935;SDS011;34745;52.276;10.528;2023-02-26T12:34:26;3.07;;;1.50;;
48935;SDS011;34745;52.276;10.528;2023-02-26T12:37:17;1.23;;;0.77;;
48935;SDS011;34745;52.276;10.528;2023-02-26T12:39:56;2.40;;;1.10;;
48935;SDS011;34745;52.276;10.528;2023-02-26T12:42:35;4.37;;;1.00;;
48935;SDS011;34745;52.276;10.528;2023-02-26T12:45:20;1.73;;;1.00;;
48935;SDS011;34745;52.276;10.528;2023-02-26T12:48:01;3.10;;;1.27;;
48935;SDS011;34745;52.276;10.528;2023-02-26T12:50:41;3.43;;;1.20;;
48935;SDS011;34745;52.276;10.528;2023-02-26T12:53:23;1.30;;;0.80;;
48935;SDS011;34745;52.276;10.528;2023-02-26T12:59:00;3.05;;;1.00;;
48935;SDS011;34745;52.276;10.528;2023-02-26T13:01:42;1.10;;;1.00;;
48935;SDS011;34745;52.276;10.528;2023-02-26T13:04:34;1.73;;;1.00;;
48935;SDS011;34745;52.276;10.528;2023-02-26T13:07:19;1.25;;;0.77;;
48935;SDS011;34745;52.276;10.528;2023-02-26T13:10:04;2.53;;;1.00;;
48935;SDS011;34745;52.276;10.528;2023-02-26T13:12:41;1.70;;;0.93;;
48935;SDS011;34745;52.276;10.528;2023-02-26T13:15:17;1.27;;;0.82;;
48935;SDS011;34745;52.276;10.528;2023-02-26T13:17:56;1.70;;;1.10;;
48935;SDS011;34745;52.276;10.528;2023-02-26T13:20:27;1.02;;;0.93;;
48935;SDS011;34745;52.276;10.528;2023-02-26T13:22:55;2.38;;;1.05;;
48935;SDS011;34745;52.276;10.528;2023-02-26T13:25:29;1.10;;;0.80;;
48935;SDS011;34745;52.276;10.528;2023-02-26T13:28:02;2.13;;;0.90;;
48935;SDS011;34745;52.276;10.528;2023-02-26T13:30:38;1.23;;;0.80;;
48935;SDS011;34745;52.276;10.528;2023-02-26T13:33:14;2.00;;;1.23;;
48935;SDS011;34745;52.276;10.528;2023-02-26T13:35:43;1.02;;;0.90;;
48935;SDS011;34745;52.276;10.528;2023-02-26T13:38:13;1.10;;;0.90;;
48935;SDS011;34745;52.276;10.528;2023-02-26T13:40:53;0.93;;;0.70;;
48935;SDS011;34745;52.276;10.528;2023-02-26T13:43:33;3.25;;;1.38;;
48935;SDS011;34745;52.276;10.528;2023-02-26T13:46:17;1.25;;;0.85;;
48935;SDS011;34745;52.276;10.528;2023-02-26T13:48:57;2.67;;;1.10;;
48935;SDS011;34745;52.276;10.528;2023-02-26T13:51:32;1.85;;;0.90;;
48935;SDS011;34745;52.276;10.528;2023-02-26T13:54:01;1.00;;;0.90;;
48935;SDS011;34745;52.276;10.528;2023-02-26T13:56:42;1.17;;;0.90;;
48935;SDS011;34745;52.276;10.528;2023-02-26T13:59:24;0.90;;;0.90;;
48935;SDS011;34745;52.276;10.528;2023-02-26T14:05:31;1.42;;;1.02;;
48935;SDS011;34745;52.276;10.528;2023-02-26T14:08:20;2.63;;;1.20;;
48935;SDS011;34745;52.276;10.528;2023-02-26T14:10:53;1.75;;;1.25;;
48935;SDS011;34745;52.276;10.528;2023-02-26T14:13:29;1.55;;;1.40;;
48935;SDS011;34745;52.276;10.528;2023-02-26T14:16:00;4.38;;;1.30;;
48935;SDS011;34745;52.276;10.528;2023-02-26T14:18:35;2.42;;;1.27;;
48935;SDS011;34745;52.276;10.528;2023-02-26T14:24:04;3.88;;;1.13;;
48935;SDS011;34745;52.276;10.528;2023-02-26T14:26:42;1.25;;;0.93;;
48935;SDS011;34745;52.276;10.528;2023-02-26T14:32:12;1.73;;;1.00;;
48935;SDS011;34745;52.276;10.528;2023-02-26T14:34:45;0.90;;;0.90;;
48935;SDS011;34745;52.276;10.528;2023-02-26T14:37:16;6.28;;;1.17;;
48935;SDS011;34745;52.276;10.528;2023-02-26T14:39:47;0.80;;;0.80;;
48935;SDS011;34745;52.276;10.528;2023-02-26T14:42:19;5.80;;;3.60;;
48935;SDS011;34745;52.276;10.528;2023-02-26T14:44:55;4.47;;;2.33;;
48935;SDS011;34745;52.276;10.528;2023-02-26T14:47:29;2.47;;;2.00;;
48935;SDS011;34745;52.276;10.528;2023-02-26T14:49:56;2.63;;;1.70;;
48935;SDS011;34745;52.276;10.528;2023-02-26T14:55:34;7.50;;;4.40;;
48935;SDS011;34745;52.276;10.528;2023-02-26T14:58:21;8.43;;;5.03;;
48935;SDS011;34745;52.276;10.528;2023-02-26T15:01:01;2.17;;;1.20;;
48935;SDS011;34745;52.276;10.528;2023-02-26T15:03:52;2.33;;;1.00;;
48935;SDS011;34745;52.276;10.528;2023-02-26T15:06:42;1.47;;;1.00;;
48935;SDS011;34745;52.276;10.528;2023-02-26T15:09:22;1.20;;;1.10;;
48935;SDS011;34745;52.276;10.528;2023-02-26T15:12:00;2.90;;;1.10;;
48935;SDS011;34745;52.276;10.528;2023-02-26T15:17:32;1.23;;;1.13;;
48935;SDS011;34745;52.276;10.528;2023-02-26T15:20:09;1.20;;;1.10;;